MST,Max TemperatureF,Mean TemperatureF,Min TemperatureF,Max Dew PointF,MeanDew PointF,Min DewpointF,Max Humidity, Mean Humidity, Min Humidity, Max Sea Level PressureIn, Mean Sea Level PressureIn, Min Sea Level PressureIn, Max VisibilityMiles, Mean VisibilityMiles, Min VisibilityMiles, Max Wind SpeedMPH, Mean Wind SpeedMPH, Max Gust SpeedMPH,PrecipitationIn, CloudCover, Events, WindDirDegrees
2012-10-1,86,70,54,38,32,28,51,24,12,29.92,29.87,29.83,,,,15,7,21,0.00,0,,122
2012-10-2,88,72,55,40,33,28,49,24,12,30.09,29.87,29.79,,,,15,6,22,0.00,0,,254
2012-10-3,86,72,59,34,30,27,39,22,12,29.98,29.91,29.86,,,,16,10,24,0.00,0,,239
2012-10-4,82,73,64,37,34,30,37,26,17,30.22,29.99,29.95,1,1,1,14,10,22,0.00,0,,229
2012-10-5,82,68,53,37,32,27,48,28,14,30.24,29.95,29.87,,,,23,11,31,0.00,0,,242
2012-10-6,80,67,54,34,31,27,47,28,14,30.14,29.87,29.80,,,,18,9,25,0.00,0,,240
2012-10-7,81,68,54,39,34,29,49,32,15,29.89,29.84,29.79,,,,14,7,,0.00,0,,244
2012-10-8,81,66,51,36,29,19,50,28,10,30.17,29.89,29.83,,,,14,8,20,0.00,0,,246
2012-10-9,81,66,52,36,31,24,47,30,12,29.94,29.89,29.81,,,,14,7,17,0.00,0,,267
2012-10-10,80,68,55,41,36,28,53,34,15,30.15,29.89,29.80,,,,17,7,25,0.00,0,,212
2012-10-11,79,67,55,48,41,34,59,41,22,30.10,29.85,29.76,,,,26,7,34,0.00,3,Rain,219
2012-10-12,71,60,48,49,34,18,69,41,13,29.99,29.91,29.81,,,,21,13,30,0.00,0,,233
2012-10-13,73,59,45,36,32,23,68,42,16,30.07,30.01,29.94,,,,9,5,,0.00,0,,252
2012-10-14,77,62,48,33,29,22,52,31,13,30.05,29.98,29.91,,,,15,7,24,0.00,0,,111
2012-10-15,81,68,55,28,22,15,30,20,8,30.11,29.91,29.82,,,,12,6,23,0.00,0,,218
2012-10-16,79,64,50,30,24,20,36,23,11,29.88,29.81,29.75,1,1,1,12,6,,0.00,0,,252
2012-10-17,82,66,50,53,37,30,67,38,17,29.90,29.84,29.77,,,,10,7,18,0.00,0,,249
2012-10-18,77,67,57,55,49,45,90,58,32,29.99,29.92,29.87,,,,14,10,20,0.00,1,,268
2012-10-19,82,70,57,47,40,34,69,39,22,29.91,29.83,29.76,,,,13,7,,0.00,0,,191
2012-10-20,80,67,54,42,37,34,53,35,20,29.82,29.77,29.71,,,,18,8,20,0.00,0,,254
2012-10-21,75,64,52,42,37,25,66,43,16,29.84,29.80,29.76,,,,17,8,25,0.00,0,,233
2012-10-22,78,63,48,42,35,28,74,43,17,30.07,29.85,29.80,,,,13,6,16,0.00,0,,245
2012-10-23,80,66,53,37,33,26,51,34,15,29.88,29.81,29.76,,,,17,9,23,0.00,0,,251
2012-10-24,78,64,50,39,33,28,59,37,17,29.87,29.82,29.77,,,,23,12,30,0.00,0,,253
2012-10-25,75,60,45,26,19,11,41,24,9,29.96,29.89,29.83,,,,13,8,,0.00,0,,249
2012-10-26,75,62,48,26,16,12,35,19,9,29.96,29.89,29.82,,,,15,7,21,0.00,0,,82
2012-10-27,75,58,42,30,28,25,55,34,17,29.95,29.90,29.82,,,,15,10,21,0.00,0,,93
2012-10-28,80,66,52,31,27,25,40,25,13,30.20,29.93,29.86,,,,9,3,,0.00,0,,67
2012-10-29,79,66,53,33,29,23,43,27,13,30.07,29.99,29.92,,,,9,6,,0.00,0,,227
2012-10-30,79,65,51,33,26,18,45,25,10,30.15,29.97,29.89,,,,13,6,68,0.00,0,,233
2012-10-31,78,62,46,30,24,16,47,25,11,29.99,29.93,29.85,,,,10,5,,0.00,0,,226